Terminal Aerodrome Forecast
Issued by NWS

Home | Current Version | Previous Version | Text Only | Print | Product List | Glossary On
Versions: 1 2 3 4 5 6 7 8 9 10 11 12 13 14 15 16 17 18 19 20
000
FTUS43 KPAH 282339
TAFCGI
TAF
KCGI 282339Z 0100/0124 08004KT 6SM -SN FEW015 OVC035
     FM010700 00000KT 2SM -FZRA BR OVC007
     FM011400 03003KT 2SM -DZ BR OVC005
     FM011700 33006KT 5SM -DZ BR OVC008=

USA.gov is the U.S. government's official web portal to all federal, state and local government web resources and services.